createdAt,value
2019-02-08T00:00:27.993Z,34.73
2019-02-08T00:02:58.359Z,37.03
2019-02-08T00:05:28.821Z,34.53
2019-02-08T00:07:59.254Z,36.73
2019-02-08T00:10:30.198Z,35.47
2019-02-08T00:13:01.065Z,38.83
2019-02-08T00:15:31.997Z,32.00
2019-02-08T00:18:02.426Z,35.70
2019-02-08T00:20:32.994Z,40.73
2019-02-08T00:23:03.320Z,41.00
2019-02-08T00:25:33.721Z,37.03
2019-02-08T00:28:04.462Z,37.30
2019-02-08T00:30:35.796Z,38.27
2019-02-08T00:33:06.284Z,35.43
2019-02-08T00:35:38.440Z,39.63
2019-02-08T00:38:12.437Z,36.10
2019-02-08T00:40:43.136Z,35.77
2019-02-08T00:43:13.572Z,38.83
2019-02-08T00:45:43.981Z,38.67
2019-02-08T00:48:14.661Z,37.13
2019-02-08T00:50:45.330Z,34.07
2019-02-08T00:53:18.476Z,36.77
2019-02-08T00:55:48.877Z,39.30
2019-02-08T00:58:19.496Z,37.70
2019-02-08T01:00:49.887Z,33.17
2019-02-08T01:03:21.655Z,37.60
2019-02-08T01:05:52.126Z,38.60
2019-02-08T01:08:24.260Z,37.33
2019-02-08T01:10:55.090Z,37.17
2019-02-08T01:13:25.544Z,38.90
2019-02-08T01:15:56.000Z,38.33
2019-02-08T01:18:26.470Z,39.13
2019-02-08T01:20:56.977Z,37.60
2019-02-08T01:23:27.882Z,38.30
2019-02-08T01:25:58.481Z,37.87
2019-02-08T01:28:28.941Z,39.77
2019-02-08T01:30:59.448Z,37.27
2019-02-08T01:33:30.458Z,42.17
2019-02-08T01:36:00.854Z,35.93
2019-02-08T01:38:31.620Z,35.17
2019-02-08T01:41:02.117Z,32.90
2019-02-08T01:43:32.863Z,38.57
2019-02-08T01:46:03.255Z,37.53
2019-02-08T01:48:33.670Z,35.30
2019-02-08T01:51:04.258Z,36.63
2019-02-08T01:53:34.706Z,36.53
2019-02-08T01:56:05.340Z,39.90
2019-02-08T01:58:36.267Z,36.67
2019-02-08T02:01:07.140Z,37.93
2019-02-08T02:03:37.496Z,36.63
2019-02-08T02:06:07.926Z,34.53
2019-02-08T02:08:38.400Z,36.23
2019-02-08T02:11:08.838Z,36.07
2019-02-08T02:13:39.566Z,36.17
2019-02-08T02:16:10.276Z,39.73
2019-02-08T02:18:40.880Z,38.53
2019-02-08T02:21:11.390Z,38.53
2019-02-08T02:23:41.780Z,35.63
2019-02-08T02:26:12.182Z,36.60
2019-02-08T02:28:42.590Z,39.43
2019-02-08T02:31:13.052Z,38.60
2019-02-08T02:33:43.484Z,39.23
2019-02-08T02:36:14.592Z,39.40
2019-02-08T02:38:44.855Z,38.50
2019-02-08T02:41:15.617Z,38.13
2019-02-08T02:43:46.431Z,40.23
2019-02-08T02:46:16.876Z,42.17
2019-02-08T02:48:49.752Z,36.83
2019-02-08T02:51:20.193Z,37.50
2019-02-08T02:53:50.588Z,40.70
2019-02-08T02:56:20.984Z,38.47
2019-02-08T02:58:51.479Z,40.70
2019-02-08T03:01:24.879Z,39.87
2019-02-08T03:03:55.370Z,41.33
2019-02-08T03:06:25.791Z,42.20
2019-02-08T03:08:56.188Z,40.57
2019-02-08T03:11:26.558Z,39.60
2019-02-08T03:13:57.148Z,41.17
2019-02-08T03:16:27.818Z,36.57
2019-02-08T03:18:58.265Z,40.03
2019-02-08T03:21:28.959Z,38.70
2019-02-08T03:23:59.372Z,41.90
2019-02-08T03:26:29.712Z,40.87
2019-02-08T03:29:00.154Z,41.30
2019-02-08T03:31:33.511Z,39.10
2019-02-08T03:34:05.977Z,42.33
2019-02-08T03:36:36.434Z,39.50
2019-02-08T03:39:09.400Z,41.87
2019-02-08T03:41:40.011Z,41.37
2019-02-08T03:44:10.441Z,43.73
2019-02-08T03:46:41.203Z,42.10
2019-02-08T03:49:12.147Z,39.30
2019-02-08T03:51:42.585Z,42.63
2019-02-08T03:54:20.725Z,41.53
2019-02-08T03:56:45.092Z,42.00
2019-02-08T03:59:17.851Z,43.10
2019-02-08T04:01:48.359Z,41.67
2019-02-08T04:04:19.049Z,43.13
2019-02-08T04:06:50.757Z,41.93
2019-02-08T04:09:21.244Z,44.23
2019-02-08T04:11:51.603Z,43.67
2019-02-08T04:14:22.029Z,42.93
2019-02-08T04:16:52.565Z,44.30
2019-02-08T04:19:22.901Z,36.83
2019-02-08T04:21:53.341Z,44.33
2019-02-08T04:24:29.759Z,41.93
2019-02-08T04:26:55.761Z,42.33
2019-02-08T04:29:26.178Z,45.40
2019-02-08T04:31:56.691Z,45.27
2019-02-08T04:34:28.953Z,45.47
2019-02-08T04:36:59.755Z,43.70
2019-02-08T04:39:30.484Z,43.27
2019-02-08T04:42:01.067Z,41.23
2019-02-08T04:44:33.705Z,45.57
2019-02-08T04:47:04.107Z,41.53
2019-02-08T04:49:35.060Z,40.40
2019-02-08T04:52:05.597Z,45.90
2019-02-08T04:54:38.402Z,44.07
2019-02-08T04:57:08.259Z,44.83
2019-02-08T04:59:38.612Z,45.27
2019-02-08T05:02:09.074Z,44.60
2019-02-08T05:04:39.491Z,47.20
2019-02-08T05:07:09.986Z,47.00
2019-02-08T05:09:42.659Z,41.33
2019-02-08T05:12:12.995Z,46.67
2019-02-08T05:14:44.552Z,45.17
2019-02-08T05:17:15.171Z,43.87
2019-02-08T05:19:45.741Z,46.47
2019-02-08T05:22:16.153Z,47.83
2019-02-08T05:24:46.635Z,47.40
2019-02-08T05:27:17.181Z,47.53
2019-02-08T05:29:47.675Z,45.73
2019-02-08T05:32:18.083Z,50.23
2019-02-08T05:34:48.533Z,44.73
2019-02-08T05:37:19.079Z,49.60
2019-02-08T05:39:49.511Z,55.30
2019-02-08T05:42:19.904Z,50.30
2019-02-08T05:44:50.403Z,54.73
2019-02-08T05:47:20.969Z,53.80
2019-02-08T05:49:51.598Z,52.50
2019-02-08T05:52:21.951Z,50.93
2019-02-08T05:54:54.459Z,52.47
2019-02-08T05:57:24.371Z,50.10
2019-02-08T05:59:55.281Z,51.07
2019-02-08T06:02:25.775Z,54.10
2019-02-08T06:04:56.223Z,49.37
2019-02-08T06:07:26.647Z,49.73
2019-02-08T06:09:57.431Z,46.67
2019-02-08T06:12:27.876Z,51.33
2019-02-08T06:14:58.523Z,51.83
2019-02-08T06:17:28.980Z,50.83
2019-02-08T06:19:59.457Z,47.03
2019-02-08T06:22:29.865Z,45.43
2019-02-08T06:25:04.512Z,44.37
2019-02-08T06:27:35.435Z,43.93
2019-02-08T06:30:07.415Z,44.87
2019-02-08T06:32:38.081Z,44.07
2019-02-08T06:35:09.401Z,43.00
2019-02-08T06:37:44.464Z,45.37
2019-02-08T06:40:14.361Z,44.37
2019-02-08T06:42:45.099Z,44.13
2019-02-08T06:45:16.892Z,41.60
2019-02-08T06:47:47.616Z,40.90
2019-02-08T06:50:20.070Z,43.30
2019-02-08T06:52:50.486Z,45.30
2019-02-08T06:55:21.266Z,39.83
2019-02-08T06:57:57.602Z,44.63
2019-02-08T07:00:32.703Z,42.97
2019-02-08T07:03:22.077Z,40.40
2019-02-08T07:06:14.468Z,42.03
2019-02-08T07:09:02.707Z,42.50
2019-02-08T07:11:51.583Z,39.50
2019-02-08T07:14:46.730Z,39.50
2019-02-08T07:17:36.201Z,41.70
2019-02-08T07:20:26.697Z,40.27
2019-02-08T07:23:28.599Z,45.20
2019-02-08T07:26:36.259Z,41.93
2019-02-08T07:29:19.056Z,39.10
2019-02-08T07:32:07.065Z,40.40
2019-02-08T07:34:56.663Z,40.23
2019-02-08T07:37:46.032Z,43.63
2019-02-08T07:40:40.232Z,40.57
2019-02-08T07:43:39.821Z,42.67
2019-02-08T07:46:32.611Z,39.37
2019-02-08T07:49:21.126Z,40.50
2019-02-08T07:52:10.487Z,40.60
2019-02-08T07:54:59.893Z,40.40
2019-02-08T07:57:50.601Z,44.40
2019-02-08T08:00:51.447Z,40.87
2019-02-08T08:03:35.726Z,44.07
2019-02-08T08:06:25.709Z,41.83
2019-02-08T08:09:27.502Z,40.10
2019-02-08T08:12:19.682Z,38.50
2019-02-08T08:15:08.401Z,41.73
2019-02-08T08:18:01.249Z,39.50
2019-02-08T08:20:50.537Z,34.00
2019-02-08T08:23:56.906Z,38.37
2019-02-08T08:27:00.591Z,37.10
2019-02-08T08:29:57.771Z,35.73
2019-02-08T08:32:38.599Z,38.50
2019-02-08T08:35:33.955Z,34.87
2019-02-08T08:38:51.072Z,37.90
2019-02-08T08:42:01.159Z,39.23
2019-02-08T08:45:14.640Z,36.03
2019-02-08T08:48:22.695Z,36.60
2019-02-08T08:51:39.419Z,38.27
2019-02-08T08:54:56.506Z,39.60
2019-02-08T08:58:09.465Z,36.70
2019-02-08T09:01:21.043Z,36.63
2019-02-08T09:04:21.743Z,38.00
2019-02-08T09:07:16.380Z,40.20
2019-02-08T09:10:20.825Z,36.43
2019-02-08T09:13:44.613Z,35.20
2019-02-08T09:16:56.151Z,37.23
2019-02-08T09:20:14.029Z,37.00
2019-02-08T09:23:21.103Z,39.30
2019-02-08T09:26:33.491Z,36.90
2019-02-08T09:29:35.334Z,38.03
2019-02-08T09:33:06.051Z,36.50
2019-02-08T09:36:23.275Z,33.80
2019-02-08T09:39:31.166Z,37.37
2019-02-08T09:42:38.371Z,36.20
2019-02-08T09:45:54.521Z,35.57
2019-02-08T09:49:05.262Z,31.43
2019-02-08T09:52:17.208Z,33.73
2019-02-08T09:55:43.707Z,33.70
2019-02-08T09:58:46.426Z,34.43
2019-02-08T10:01:56.621Z,33.47
2019-02-08T10:05:26.314Z,33.60
2019-02-08T10:08:52.678Z,33.77
2019-02-08T10:11:59.300Z,33.23
2019-02-08T10:15:05.304Z,32.53
2019-02-08T10:18:18.765Z,34.07
2019-02-08T10:21:29.945Z,32.70
2019-02-08T10:24:44.613Z,34.90
2019-02-08T10:27:40.571Z,32.57
2019-02-08T10:30:58.286Z,33.30
2019-02-08T10:34:14.611Z,31.07
2019-02-08T10:37:27.813Z,33.17
2019-02-08T10:40:48.213Z,33.67
2019-02-08T10:43:46.737Z,31.63
2019-02-08T10:46:45.585Z,34.53
2019-02-08T10:50:02.888Z,33.83
2019-02-08T10:53:09.075Z,33.63
2019-02-08T10:56:15.115Z,34.37
2019-02-08T10:59:29.057Z,37.50
2019-02-08T11:02:39.522Z,33.87
2019-02-08T11:05:45.706Z,31.33
2019-02-08T11:08:43.670Z,33.80
2019-02-08T11:12:14.677Z,34.90
2019-02-08T11:15:45.070Z,30.47
2019-02-08T11:18:52.423Z,32.53
2019-02-08T11:21:23.024Z,30.27
2019-02-08T11:23:53.420Z,29.37
2019-02-08T11:26:24.568Z,28.83
2019-02-08T11:28:55.317Z,30.10
2019-02-08T11:31:25.706Z,31.63
2019-02-08T11:33:56.113Z,30.23
2019-02-08T11:36:26.678Z,32.87
2019-02-08T11:38:57.099Z,30.70
2019-02-08T11:41:27.684Z,28.23
2019-02-08T11:43:58.346Z,28.47
2019-02-08T11:46:28.745Z,27.77
2019-02-08T11:48:59.278Z,28.20
2019-02-08T11:51:30.054Z,28.57
2019-02-08T11:54:00.524Z,26.33
2019-02-08T11:56:31.027Z,27.90
2019-02-08T11:59:01.409Z,26.03
2019-02-08T12:01:36.794Z,29.97
2019-02-08T12:04:08.055Z,27.17
2019-02-08T12:06:38.587Z,26.43
2019-02-08T12:09:15.379Z,29.20
2019-02-08T12:11:45.872Z,27.80
2019-02-08T12:14:16.719Z,28.43
2019-02-08T12:16:47.246Z,27.03
2019-02-08T12:19:18.018Z,25.07
2019-02-08T12:21:52.273Z,28.73
2019-02-08T12:24:22.790Z,24.93
2019-02-08T12:26:53.427Z,27.57
2019-02-08T12:29:24.226Z,28.57
2019-02-08T12:31:54.643Z,25.67
2019-02-08T12:34:25.004Z,27.37
2019-02-08T12:36:55.454Z,26.23
2019-02-08T12:39:26.201Z,24.33
2019-02-08T12:41:56.685Z,27.50
2019-02-08T12:44:27.534Z,24.93
2019-02-08T12:46:57.918Z,28.73
2019-02-08T12:49:28.312Z,29.53
2019-02-08T12:51:58.756Z,25.17
2019-02-08T12:54:29.235Z,29.53
2019-02-08T12:56:59.723Z,26.33
2019-02-08T12:59:30.504Z,26.83
2019-02-08T13:02:01.258Z,30.60
2019-02-08T13:04:32.993Z,29.77
2019-02-08T13:07:03.431Z,27.37
2019-02-08T13:09:34.030Z,29.37
2019-02-08T13:12:05.372Z,29.30
2019-02-08T13:14:35.816Z,30.37
2019-02-08T13:17:06.292Z,28.77
2019-02-08T13:19:38.009Z,30.10
2019-02-08T13:22:08.552Z,31.50
2019-02-08T13:24:39.062Z,31.27
2019-02-08T13:27:09.813Z,29.40
2019-02-08T13:29:40.274Z,29.03
2019-02-08T13:32:10.863Z,28.27
2019-02-08T13:34:41.799Z,33.57
2019-02-08T13:37:12.240Z,29.83
2019-02-08T13:39:42.850Z,32.10
2019-02-08T13:42:13.293Z,32.50
2019-02-08T13:44:43.662Z,31.43
2019-02-08T13:47:14.369Z,30.67
2019-02-08T13:49:44.825Z,30.00
2019-02-08T13:52:15.431Z,32.10
2019-02-08T13:54:45.865Z,30.30
2019-02-08T13:57:17.033Z,32.00
2019-02-08T13:59:47.612Z,34.27
2019-02-08T14:02:17.977Z,33.10
2019-02-08T14:04:48.653Z,32.50
2019-02-08T14:07:19.138Z,30.60
2019-02-08T14:09:49.571Z,33.03
2019-02-08T14:12:19.917Z,33.90
2019-02-08T14:14:50.321Z,34.07
2019-02-08T14:17:20.722Z,32.17
2019-02-08T14:19:51.240Z,34.73
2019-02-08T14:22:21.770Z,32.20
2019-02-08T14:24:52.171Z,30.83
2019-02-08T14:27:22.675Z,30.87
2019-02-08T14:29:53.163Z,29.33
2019-02-08T14:32:24.759Z,29.63
2019-02-08T14:34:55.337Z,29.20
2019-02-08T14:37:26.012Z,30.07
2019-02-08T14:39:59.131Z,28.83
2019-02-08T14:42:29.665Z,30.00
2019-02-08T14:45:00.287Z,28.23
2019-02-08T14:47:30.731Z,25.47
2019-02-08T14:50:01.407Z,26.93
2019-02-08T14:52:31.757Z,25.60
2019-02-08T14:55:02.354Z,27.07
2019-02-08T14:57:32.781Z,28.83
2019-02-08T15:00:03.148Z,25.57
2019-02-08T15:02:33.770Z,27.27
2019-02-08T15:05:04.852Z,28.37
2019-02-08T15:07:35.255Z,28.10
2019-02-08T15:10:08.096Z,25.57
2019-02-08T15:12:39.514Z,24.30
2019-02-08T15:15:10.525Z,25.70
2019-02-08T15:17:41.101Z,26.67
2019-02-08T15:20:18.500Z,25.70
2019-02-08T15:22:49.078Z,27.47
2019-02-08T15:25:20.072Z,25.57
2019-02-08T15:27:50.911Z,30.03
2019-02-08T15:30:23.671Z,26.90
2019-02-08T15:32:54.096Z,27.23
2019-02-08T15:35:28.718Z,24.70
2019-02-08T15:37:59.621Z,26.63
2019-02-08T15:40:36.316Z,27.87
2019-02-08T15:43:07.088Z,26.87
2019-02-08T15:45:37.512Z,27.77
2019-02-08T15:48:08.307Z,30.50
2019-02-08T15:50:38.772Z,32.70
2019-02-08T15:53:12.487Z,25.10
2019-02-08T15:55:44.911Z,26.97
2019-02-08T15:58:15.304Z,28.03
2019-02-08T16:00:46.320Z,26.70
2019-02-08T16:03:17.194Z,27.37
2019-02-08T16:05:47.875Z,38.83
2019-02-08T16:08:19.264Z,26.97
2019-02-08T16:10:50.032Z,29.70
2019-02-08T16:13:20.424Z,28.83
2019-02-08T16:15:50.900Z,35.37
2019-02-08T16:18:21.348Z,28.53
2019-02-08T16:20:51.836Z,27.17
2019-02-08T16:23:22.374Z,27.07
2019-02-08T16:25:52.815Z,27.80
2019-02-08T16:28:23.429Z,29.40
2019-02-08T16:30:53.967Z,28.37
2019-02-08T16:33:24.317Z,30.13
2019-02-08T16:35:54.728Z,27.73
2019-02-08T16:38:25.090Z,28.30
2019-02-08T16:40:55.558Z,27.17
2019-02-08T16:43:26.109Z,28.93
2019-02-08T16:45:56.598Z,30.43
2019-02-08T16:48:26.934Z,30.73
2019-02-08T16:50:57.696Z,32.10
2019-02-08T16:53:28.532Z,30.67
2019-02-08T16:55:59.718Z,31.17
2019-02-08T16:58:30.233Z,29.03
2019-02-08T17:01:00.726Z,31.83
2019-02-08T17:03:31.807Z,31.27
2019-02-08T17:06:02.186Z,31.37
2019-02-08T17:08:32.605Z,29.23
2019-02-08T17:11:03.256Z,31.47
2019-02-08T17:13:35.114Z,28.43
2019-02-08T17:16:06.706Z,26.90
2019-02-08T17:18:37.159Z,27.97
2019-02-08T17:21:07.566Z,29.73
2019-02-08T17:23:37.968Z,29.50
2019-02-08T17:26:08.514Z,28.73
2019-02-08T17:28:39.218Z,26.07
2019-02-08T17:31:09.762Z,26.33
2019-02-08T17:33:40.228Z,26.63
2019-02-08T17:36:10.681Z,26.30
2019-02-08T17:38:41.200Z,29.93
2019-02-08T17:41:11.840Z,27.60
2019-02-08T17:43:42.247Z,22.80
2019-02-08T17:46:12.618Z,28.50
2019-02-08T17:48:43.002Z,28.07
2019-02-08T17:51:13.365Z,26.77
2019-02-08T17:53:44.136Z,29.50
2019-02-08T17:56:14.568Z,26.07
2019-02-08T17:58:45.080Z,27.17
2019-02-08T18:01:15.598Z,27.20
2019-02-08T18:03:46.116Z,27.33
2019-02-08T18:06:16.530Z,30.13
2019-02-08T18:08:46.922Z,26.67
2019-02-08T18:11:17.606Z,29.40
2019-02-08T18:13:48.077Z,27.50
2019-02-08T18:16:18.546Z,32.63
2019-02-08T18:18:48.931Z,29.90
2019-02-08T18:21:19.537Z,26.73
2019-02-08T18:23:51.652Z,28.93
2019-02-08T18:26:22.111Z,33.40
2019-02-08T18:28:52.590Z,32.53
2019-02-08T18:31:22.988Z,28.70
2019-02-08T18:33:53.536Z,32.77
2019-02-08T18:36:23.930Z,31.20
2019-02-08T18:38:54.389Z,30.13
2019-02-08T18:41:25.100Z,31.60
2019-02-08T18:43:55.624Z,33.07
2019-02-08T18:46:26.030Z,34.40
2019-02-08T18:48:56.986Z,33.10
2019-02-08T18:51:27.379Z,32.50
2019-02-08T18:53:57.855Z,36.00
2019-02-08T18:56:28.215Z,32.30
2019-02-08T18:58:58.630Z,41.80
2019-02-08T19:01:30.378Z,40.57
2019-02-08T19:04:00.790Z,34.97
2019-02-08T19:06:31.176Z,35.00
2019-02-08T19:09:01.729Z,34.17
2019-02-08T19:11:33.670Z,34.30
2019-02-08T19:14:04.238Z,36.23
2019-02-08T19:16:34.573Z,35.17
2019-02-08T19:19:04.958Z,37.00
2019-02-08T19:21:35.335Z,40.10
2019-02-08T19:24:05.904Z,34.00
2019-02-08T19:26:36.642Z,35.30
2019-02-08T19:29:07.110Z,36.87
2019-02-08T19:31:37.532Z,36.73
2019-02-08T19:34:08.160Z,38.13
2019-02-08T19:36:38.742Z,35.83
2019-02-08T19:39:10.653Z,39.17
2019-02-08T19:41:41.010Z,38.37
2019-02-08T19:44:11.868Z,40.50
2019-02-08T19:46:44.672Z,35.10
2019-02-08T19:49:16.694Z,40.40
2019-02-08T19:51:47.060Z,39.23
2019-02-08T19:54:17.583Z,41.70
2019-02-08T19:56:47.934Z,38.60
2019-02-08T19:59:18.682Z,38.03
2019-02-08T20:01:49.158Z,38.10
2019-02-08T20:04:19.882Z,37.33
2019-02-08T20:06:50.394Z,40.90
2019-02-08T20:09:20.924Z,42.80
2019-02-08T20:11:51.286Z,42.13
2019-02-08T20:14:21.889Z,38.60
2019-02-08T20:16:52.335Z,43.03
2019-02-08T20:19:23.503Z,35.90
2019-02-08T20:21:53.894Z,36.00
2019-02-08T20:24:24.628Z,39.47
2019-02-08T20:26:55.204Z,42.47
2019-02-08T20:29:25.594Z,38.77
2019-02-08T20:31:56.690Z,38.40
2019-02-08T20:34:27.079Z,39.93
2019-02-08T20:36:57.524Z,41.00
2019-02-08T20:39:27.924Z,40.17
2019-02-08T20:41:58.424Z,38.13
2019-02-08T20:44:28.834Z,44.23
2019-02-08T20:46:59.222Z,44.53
2019-02-08T20:49:29.856Z,36.70
2019-02-08T20:52:01.153Z,42.73
2019-02-08T20:54:31.745Z,43.07
2019-02-08T20:57:02.196Z,43.13
2019-02-08T20:59:32.596Z,45.97
2019-02-08T21:02:02.948Z,41.73
2019-02-08T21:04:33.568Z,42.20
2019-02-08T21:07:04.089Z,48.13
2019-02-08T21:09:34.440Z,47.03
2019-02-08T21:12:05.516Z,36.67
2019-02-08T21:14:35.839Z,40.23
2019-02-08T21:17:06.338Z,34.50
2019-02-08T21:19:36.740Z,47.97
2019-02-08T21:22:07.434Z,53.77
2019-02-08T21:24:37.859Z,45.53
2019-02-08T21:27:08.257Z,38.03
2019-02-08T21:29:38.803Z,45.47
2019-02-08T21:32:09.562Z,48.03
2019-02-08T21:34:40.137Z,47.70
2019-02-08T21:37:10.738Z,46.30
2019-02-08T21:39:41.482Z,37.07
2019-02-08T21:42:11.880Z,44.97
2019-02-08T21:44:42.256Z,48.40
2019-02-08T21:47:13.021Z,50.53
2019-02-08T21:49:43.589Z,50.87
2019-02-08T21:52:14.054Z,48.73
2019-02-08T21:54:44.526Z,48.70
2019-02-08T21:57:14.953Z,41.43
2019-02-08T21:59:46.869Z,48.77
2019-02-08T22:02:17.489Z,46.17
2019-02-08T22:04:47.895Z,52.40
2019-02-08T22:07:18.549Z,41.77
2019-02-08T22:09:49.024Z,48.87
2019-02-08T22:12:19.582Z,46.77
2019-02-08T22:14:50.025Z,47.37
2019-02-08T22:17:20.480Z,43.37
2019-02-08T22:19:50.883Z,40.70
2019-02-08T22:22:21.256Z,45.83
2019-02-08T22:24:52.819Z,54.03
2019-02-08T22:27:23.435Z,34.07
2019-02-08T22:29:53.856Z,44.90
2019-02-08T22:32:24.271Z,40.73
2019-02-08T22:34:54.688Z,55.03
2019-02-08T22:37:25.014Z,54.43
2019-02-08T22:39:55.429Z,47.63
2019-02-08T22:42:25.890Z,56.80
2019-02-08T22:44:56.296Z,27.90
2019-02-08T22:47:26.657Z,40.93
2019-02-08T22:49:57.127Z,52.27
2019-02-08T22:52:27.558Z,62.63
2019-02-08T22:54:57.987Z,57.73
2019-02-08T22:57:28.295Z,57.00
2019-02-08T22:59:58.805Z,49.33
2019-02-08T23:02:29.363Z,54.23
2019-02-08T23:04:59.757Z,47.23
2019-02-08T23:07:30.166Z,47.83
2019-02-08T23:10:00.600Z,52.40
2019-02-08T23:12:30.943Z,53.20
2019-02-08T23:15:01.339Z,42.87
2019-02-08T23:17:31.847Z,47.70
2019-02-08T23:20:02.175Z,45.03
2019-02-08T23:22:34.024Z,43.43
2019-02-08T23:25:05.393Z,51.97
2019-02-08T23:27:35.765Z,31.40
2019-02-08T23:30:08.173Z,57.90
2019-02-08T23:32:38.738Z,58.63
2019-02-08T23:35:09.745Z,53.33
2019-02-08T23:37:40.266Z,57.60
2019-02-08T23:40:11.049Z,43.23
2019-02-08T23:42:41.491Z,53.63
2019-02-08T23:45:12.650Z,59.10
2019-02-08T23:47:43.305Z,48.57
2019-02-08T23:50:14.215Z,41.03
2019-02-08T23:52:44.657Z,49.30
2019-02-08T23:55:16.681Z,44.00
2019-02-08T23:57:47.090Z,57.43
